Athens, Illinois
Current Conditions -  °F | °C
As of 7:01 AM on Monday 24 Nov 2014 (Local Time) from KSPI Reporting Station
Light Snow Light Snow  
Wind Chill: 24°   Ceiling: 1000
Heat Index: 35°   Visibility: 4mi
Dew Point: 32°   Wind: 22mph
Humidity: 89%   Direction: 270°W
Pressure: 29.39"   Gusts: 30mph
Location:  39.96°N, 89.72°W
Report Text: KSPI 241301Z 27019G26KT 4SM -SN BR BKN010 OVC016 02/00 A2939 RMK AO2 PK WND 26026/1259 P0000 T00170000
Loading
Personal Weather Stations






























Interactive Weather Map New forecast layout! Learn more

10-Day Weather Forecast

Advertisements
Track Severe Weather on mobile